Time;durP1;ratioP1;P1;durP2;ratioP2;P2;SDS_P1;SDS_P2;PMS_P1;PMS_P2;Temp;Humidity;BMP_temperature;BMP_pressure;BME280_temperature;BME280_humidity;BME280_pressure;Samples;Min_cycle;Max_cycle;Signal;HPM_P1;HPM_P2
2022/10/09 13:40:47;;;;;;;5.97;3.50;;;;;;;-141.28;100.00;48913.38;5097182;27;1352351;-78
2022/10/09 13:43:22;;;;;;;7.80;3.50;;;;;;;-141.28;98.77;48860.41;5111541;28;20201;-77
2022/10/09 13:45:50;;;;;;;13.13;5.63;;;;;;;-141.28;80.43;48887.88;5121798;28;20233;-80
2022/10/09 13:48:17;;;;;;;14.07;4.77;;;;;;;-141.28;75.63;48805.47;5122059;28;20209;-77
2022/10/09 13:50:44;;;;;;;6.17;3.60;;;;;;;-141.28;76.77;48921.22;5109912;28;20205;-76
2022/10/09 13:53:11;;;;;;;7.30;3.83;;;;;;;-141.28;78.48;48931.03;5125924;28;20247;-77
2022/10/09 13:55:38;;;;;;;5.27;3.70;;;;;;;-141.28;84.85;48964.38;5119823;28;20673;-78
2022/10/09 13:58:06;;;;;;;6.80;3.70;;;;;;;-141.28;86.35;48952.63;5122392;28;20328;-77
2022/10/09 14:00:35;;;;;;;5.23;3.90;;;;;;;-141.28;83.94;48960.47;5108696;28;20289;-79
2022/10/09 14:03:02;;;;;;;6.90;4.20;;;;;;;-141.28;87.01;48976.16;5108793;28;20199;-78
2022/10/09 14:05:29;;;;;;;8.20;3.50;;;;;;;-141.28;85.47;48964.38;5109241;28;20203;-78
2022/10/09 14:07:56;;;;;;;5.07;3.30;;;;;;;-141.28;86.39;49003.63;5108490;28;20203;-77
2022/10/09 14:10:23;;;;;;;9.43;3.97;;;;;;;-141.28;91.48;48870.22;5108657;28;20593;-78
2022/10/09 14:12:50;;;;;;;10.67;4.10;;;;;;;-141.28;100.00;49062.50;5108605;28;20203;-76
2022/10/09 14:15:18;;;;;;;7.23;4.33;;;;;;;-141.28;100.00;49066.41;5108493;28;20294;-78
2022/10/09 14:17:46;;;;;;;7.80;4.07;;;;;;;-141.28;100.00;49038.94;5108705;28;20203;-78
2022/10/09 14:20:12;;;;;;;6.03;4.17;;;;;;;-141.28;100.00;49527.53;5118470;28;20233;-78
2022/10/09 14:22:39;;;;;;;5.87;3.67;;;;;;;-141.28;100.00;49125.28;5112167;27;20205;-78
2022/10/09 14:25:07;;;;;;;8.07;4.10;;;;;;;-141.28;100.00;49070.34;5108164;28;20227;-80
2022/10/09 14:27:34;;;;;;;7.50;4.33;;;;;;;-141.28;100.00;49148.81;5107263;28;20203;-77
2022/10/09 14:30:01;;;;;;;8.57;4.10;;;;;;;-141.28;100.00;49150.78;5108182;28;20675;-76
2022/10/09 14:32:30;;;;;;;9.07;4.23;;;;;;;-141.28;100.00;49146.84;5108436;28;20203;-78
2022/10/09 14:34:56;;;;;;;7.83;4.30;;;;;;;-141.28;100.00;49184.13;5108264;28;20562;-77
2022/10/09 14:37:23;;;;;;;6.07;3.87;;;;;;;-141.28;100.00;49166.47;5120763;28;20274;-78
2022/10/09 14:39:52;;;;;;;6.13;3.87;;;;;;;-141.28;100.00;49188.06;5132903;27;20234;-76
2022/10/09 14:42:19;;;;;;;9.80;4.60;;;;;;;-141.28;100.00;49203.75;5123834;27;20249;-77
2022/10/09 14:44:46;;;;;;;9.17;4.60;;;;;;;-141.28;100.00;49197.88;5108381;28;20203;-76
2022/10/09 14:47:12;;;;;;;14.13;4.93;;;;;;;-141.28;100.00;49219.47;5108412;28;20205;-77
2022/10/09 14:49:41;;;;;;;6.07;4.10;;;;;;;-141.28;100.00;49070.34;5113539;28;20203;-78
2022/10/09 14:52:07;;;;;;;9.00;4.47;;;;;;;-141.28;100.00;49207.69;5102839;27;20199;-77
2022/10/09 14:54:34;;;;;;;6.83;4.20;;;;;;;-141.28;100.00;49219.47;5113271;28;20207;-76
2022/10/09 14:57:01;;;;;;;10.53;4.23;;;;;;;-141.28;100.00;49235.16;5114104;28;20630;-77
2022/10/09 14:59:29;;;;;;;6.80;4.80;;;;;;;-141.28;100.00;49231.22;5088531;28;20702;-78
2022/10/09 15:01:56;;;;;;;8.37;4.47;;;;;;;-141.28;100.00;49266.56;5094490;28;20203;-78
2022/10/09 15:04:23;;;;;;;7.10;5.03;;;;;;;-141.28;100.00;49321.50;5108039;28;20663;-79
2022/10/09 15:06:51;;;;;;;13.83;5.47;;;;;;;-141.28;100.00;49290.09;5094389;28;20294;-78
2022/10/09 15:09:18;;;;;;;7.10;4.63;;;;;;;-141.28;100.00;49294.03;5094134;28;20233;-77
2022/10/09 15:11:45;;;;;;;11.80;6.57;;;;;;;-141.28;100.00;49227.31;5107674;28;20199;-78
2022/10/09 15:14:12;;;;;;;14.37;8.60;;;;;;;-141.28;100.00;49327.38;5080878;28;20206;-77
2022/10/09 15:16:39;;;;;;;10.07;7.37;;;;;;;-141.28;100.00;49396.06;5107280;28;20285;-78
2022/10/09 15:19:06;;;;;;;9.87;6.07;;;;;;;-141.28;100.00;49384.28;5113418;28;20199;-78
2022/10/09 15:21:34;;;;;;;17.47;6.97;;;;;;;-141.28;100.00;49266.56;5101015;28;20231;-77
2022/10/09 15:24:04;;;;;;;8.20;6.93;;;;;;;-141.28;100.00;49462.78;5094213;28;20256;-77
2022/10/09 15:26:34;;;;;;;11.23;7.43;;;;;;;-141.28;100.00;49502.03;5092911;28;20254;-78
2022/10/09 15:29:01;;;;;;;12.50;7.53;;;;;;;-141.28;100.00;49541.25;5093780;28;20248;-79
2022/10/09 15:31:30;;;;;;;11.90;7.17;;;;;;;-141.28;100.00;49549.13;5093698;28;20253;-78
2022/10/09 15:33:59;;;;;;;12.37;7.60;;;;;;;-141.28;100.00;49572.66;5094043;28;20207;-77
2022/10/09 15:36:27;;;;;;;13.03;7.97;;;;;;;-141.28;100.00;49558.94;5093677;28;20305;-80
2022/10/09 15:38:54;;;;;;;13.67;7.97;;;;;;;-141.28;100.00;49560.88;5112232;28;20198;-76
2022/10/09 15:41:24;;;;;;;17.63;8.67;;;;;;;-141.28;100.00;49600.13;5116435;28;20733;-77
2022/10/09 15:43:53;;;;;;;12.43;7.90;;;;;;;-141.28;100.00;49592.28;5100447;27;20691;-78
2022/10/09 15:46:20;;;;;;;18.13;8.60;;;;;;;-141.28;100.00;49604.06;5093723;28;20211;-76
2022/10/09 15:48:48;;;;;;;16.47;9.30;;;;;;;-141.28;100.00;49647.22;5093657;28;20585;-76
2022/10/09 15:51:15;;;;;;;12.80;9.27;;;;;;;-141.28;100.00;49556.97;5092936;28;20260;-77
2022/10/09 15:53:45;;;;;;;10.20;8.90;;;;;;;-141.28;100.00;49604.06;5093797;28;20196;-76
2022/10/09 15:56:13;;;;;;;10.80;9.03;;;;;;;-141.28;100.00;49625.66;5093314;28;20616;-76
2022/10/09 15:58:42;;;;;;;14.50;9.00;;;;;;;-141.28;100.00;49631.53;5093348;28;20308;-78
2022/10/09 16:01:11;;;;;;;13.20;9.40;;;;;;;-141.28;100.00;49619.75;5095131;28;20318;-77
2022/10/09 16:03:38;;;;;;;16.57;9.70;;;;;;;-141.28;100.00;49604.06;5111978;28;20210;-78
2022/10/09 16:06:08;;;;;;;11.47;9.57;;;;;;;-141.28;100.00;49615.84;5096330;28;20231;-77
2022/10/09 16:08:35;;;;;;;16.07;9.77;;;;;;;-141.28;100.00;49588.34;5098465;28;20302;-76
2022/10/09 16:11:04;;;;;;;15.37;10.10;;;;;;;-141.28;100.00;49564.81;5100503;28;20643;-77
2022/10/09 16:13:31;;;;;;;18.07;10.13;;;;;;;-141.28;100.00;49502.03;5095997;28;20195;-78
2022/10/09 16:15:59;;;;;;;15.90;11.13;;;;;;;-141.28;100.00;49470.63;5080747;28;20667;-79
2022/10/09 16:18:26;;;;;;;16.47;10.30;;;;;;;-141.28;100.00;49462.78;5077792;28;20193;-77
2022/10/09 16:20:53;;;;;;;12.17;10.43;;;;;;;-141.28;100.00;49388.22;5074400;28;20228;-77
2022/10/09 16:23:20;;;;;;;15.17;10.43;;;;;;;-141.28;100.00;49345.03;5094339;28;20264;-78
2022/10/09 16:25:57;;;;;;;14.13;11.63;;;;;;;-141.28;100.00;49331.31;5089896;28;20564;-77
2022/10/09 16:28:26;;;;;;;30.73;20.67;;;;;;;-141.28;100.00;49290.09;5090758;28;20203;-77
2022/10/09 16:30:53;;;;;;;14.63;12.30;;;;;;;-141.28;100.00;49266.56;5092445;28;20207;-76
2022/10/09 16:33:33;;;;;;;15.50;12.57;;;;;;;-141.28;100.00;49170.41;5078587;28;20203;-78
2022/10/09 16:36:18;;;;;;;18.73;13.37;;;;;;;-141.28;100.00;49180.22;5092701;28;20204;-78
2022/10/09 16:38:47;;;;;;;14.47;12.23;;;;;;;-141.28;100.00;49109.59;5091924;28;20207;-78
2022/10/09 16:41:16;;;;;;;20.20;12.53;;;;;;;-141.28;100.00;49223.38;5105102;28;20695;-77
2022/10/09 16:43:45;;;;;;;19.43;12.70;;;;;;;-141.28;100.00;49160.59;5092564;28;20659;-77
2022/10/09 16:46:19;;;;;;;13.83;12.33;;;;;;;-141.28;100.00;49164.53;5091864;28;20203;-78
2022/10/09 16:48:48;;;;;;;17.63;13.30;;;;;;;-141.28;100.00;49195.91;5092228;28;20196;-80
2022/10/09 16:51:17;;;;;;;17.03;13.50;;;;;;;-141.28;100.00;49337.19;5089983;28;20614;-79
2022/10/09 16:53:44;;;;;;;26.43;13.03;;;;;;;-141.28;100.00;49176.28;5087143;28;20208;-79
2022/10/09 16:56:13;;;;;;;17.40;13.97;;;;;;;-141.28;100.00;49203.75;5086036;28;20634;-80
2022/10/09 16:58:41;;;;;;;17.30;13.63;;;;;;;-141.28;100.00;49174.34;5096830;28;20222;-80
2022/10/09 17:01:10;;;;;;;19.97;14.10;;;;;;;-141.28;100.00;49248.88;5100490;28;20778;-80
2022/10/09 17:03:40;;;;;;;19.83;14.40;;;;;;;-141.28;100.00;49229.28;5091898;28;20292;-79
2022/10/09 17:06:12;;;;;;;20.80;14.10;;;;;;;-141.28;100.00;49244.97;5091541;28;20294;-80
2022/10/09 17:08:40;;;;;;;24.90;13.37;;;;;;;-141.28;100.00;49274.41;5076327;28;20219;-80
2022/10/09 17:11:12;;;;;;;18.83;13.77;;;;;;;-141.28;100.00;49262.63;5086118;28;20213;-80
2022/10/09 17:13:41;;;;;;;17.87;13.73;;;;;;;-141.28;100.00;49239.09;5091973;28;20199;-78
2022/10/09 17:16:10;;;;;;;22.97;14.60;;;;;;;-141.28;100.00;49313.66;5092136;28;20207;-79
2022/10/09 17:18:37;;;;;;;17.70;13.57;;;;;;;-141.28;100.00;49282.25;5091480;28;20587;-79
2022/10/09 17:21:05;;;;;;;21.73;14.07;;;;;;;-141.28;100.00;49278.31;5091764;28;20260;-78
2022/10/09 17:23:34;;;;;;;18.63;13.57;;;;;;;-141.28;100.00;49290.09;5091846;28;20294;-81
2022/10/09 17:26:05;;;;;;;17.27;13.80;;;;;;;-141.28;100.00;49345.03;5092070;28;20207;-81
2022/10/09 17:28:33;;;;;;;17.03;13.93;;;;;;;-141.28;100.00;49333.25;5078140;28;20286;-81
2022/10/09 17:31:03;;;;;;;17.00;14.50;;;;;;;-141.28;100.00;49341.13;5092842;28;20643;-78
2022/10/09 17:33:31;;;;;;;18.67;14.43;;;;;;;-141.28;100.00;49352.88;5097342;28;20199;-79
2022/10/09 17:36:01;;;;;;;20.53;15.03;;;;;;;-141.28;100.00;49370.53;5097995;28;20215;-78
2022/10/09 17:38:29;;;;;;;19.50;15.30;;;;;;;-141.28;100.00;49384.28;5108045;28;20210;-79
2022/10/09 17:41:04;;;;;;;18.73;15.03;;;;;;;-141.28;100.00;49458.84;5108369;28;20302;-78
2022/10/09 17:43:32;;;;;;;24.00;15.90;;;;;;;-141.28;100.00;49431.38;5085663;28;20199;-79
2022/10/09 17:45:59;;;;;;;18.17;15.03;;;;;;;-141.28;100.00;49452.97;5088505;28;20200;-78
2022/10/09 17:48:26;;;;;;;21.57;14.73;;;;;;;-141.28;100.00;49466.69;5087808;28;20224;-78
2022/10/09 17:51:03;;;;;;;20.57;14.20;;;;;;;-141.28;100.00;49596.22;5094567;28;20747;-77
2022/10/09 17:53:31;;;;;;;18.80;15.57;;;;;;;-141.28;100.00;49474.53;5087810;28;20212;-76
2022/10/09 17:56:04;;;;;;;22.07;16.17;;;;;;;-141.28;100.00;49496.13;5082519;28;20279;-74
2022/10/09 17:58:32;;;;;;;19.17;14.77;;;;;;;-141.28;100.00;49498.09;5085632;28;20292;-76
2022/10/09 18:01:03;;;;;;;18.33;14.60;;;;;;;-141.28;100.00;49525.56;5074011;28;20219;-77
2022/10/09 18:03:32;;;;;;;22.50;15.57;;;;;;;-141.28;100.00;49533.41;5071686;28;20236;-78
2022/10/09 18:06:01;;;;;;;19.90;15.50;;;;;;;-141.28;100.00;49564.81;5092128;28;20582;-79
2022/10/09 18:08:29;;;;;;;16.97;14.67;;;;;;;-141.28;100.00;49560.88;5114672;28;20717;-76
2022/10/09 18:11:04;;;;;;;17.57;14.87;;;;;;;-141.28;100.00;49580.50;5113111;28;20211;-77
2022/10/09 18:16:17;;;;;;;21.97;15.97;;;;;;;-141.28;100.00;49647.22;5072447;28;20647;-77
2022/10/09 18:18:46;;;;;;;18.70;14.97;;;;;;;-141.28;100.00;49641.34;5082791;28;20287;-78
2022/10/09 18:21:16;;;;;;;23.47;18.00;;;;;;;-141.28;100.00;49633.50;5091417;28;20729;-76
2022/10/09 18:23:50;;;;;;;21.77;15.60;;;;;;;-141.28;100.00;49623.69;5091897;28;20206;-76
2022/10/09 18:26:19;;;;;;;18.07;15.50;;;;;;;-141.28;100.00;49631.53;5079516;28;20282;-79
2022/10/09 18:28:48;;;;;;;19.83;14.83;;;;;;;-141.28;100.00;49627.59;5095357;28;20210;-81
2022/10/09 18:31:19;;;;;;;19.60;15.03;;;;;;;-141.28;100.00;49598.16;5091840;28;20659;-80
2022/10/09 18:33:46;;;;;;;18.47;15.00;;;;;;;-141.28;100.00;49676.66;5080699;28;20238;-79
2022/10/09 18:36:19;;;;;;;23.67;15.53;;;;;;;-141.28;100.00;49729.66;5095986;28;20204;-80
2022/10/09 18:38:49;;;;;;;17.70;14.80;;;;;;;-141.28;100.00;49639.38;5095729;28;20234;-78
2022/10/09 18:41:18;;;;;;;21.47;16.10;;;;;;;-141.28;100.00;49639.38;5105468;28;20231;-80
2022/10/09 18:43:47;;;;;;;23.40;16.40;;;;;;;-141.28;100.00;49655.09;5083111;28;20196;-80
2022/10/09 18:46:17;;;;;;;17.30;14.70;;;;;;;-141.28;100.00;49655.09;5101928;28;20721;-79
2022/10/09 18:48:46;;;;;;;21.63;14.80;;;;;;;-141.28;100.00;49731.63;5086890;28;20207;-77
2022/10/09 18:51:16;;;;;;;21.83;16.67;;;;;;;-141.28;100.00;49643.31;5090119;28;20258;-78
2022/10/09 18:56:34;;;;;;;25.03;16.23;;;;;;;-141.28;100.00;49684.53;5080419;28;20670;-81
2022/10/09 18:59:05;;;;;;;22.33;15.73;;;;;;;-141.28;100.00;49710.03;5090192;28;20231;-78
2022/10/09 19:01:33;;;;;;;23.53;16.87;;;;;;;-141.28;100.00;49631.53;5080629;28;20236;-79
2022/10/09 19:04:02;;;;;;;20.87;16.23;;;;;;;-141.28;100.00;49551.06;5090590;28;20210;-80
2022/10/09 19:06:30;;;;;;;26.30;17.13;;;;;;;-141.28;100.00;49503.97;5085447;28;20775;-78
2022/10/09 19:08:59;;;;;;;23.63;17.13;;;;;;;-141.28;100.00;49507.91;5093660;28;20200;-78
2022/10/09 19:11:31;;;;;;;21.17;15.40;;;;;;;-141.28;100.00;49474.53;5082591;28;20268;-78
2022/10/09 19:14:10;;;;;;;19.37;16.10;;;;;;;-141.28;100.00;49505.94;5094054;28;20191;-78
2022/10/09 19:16:38;;;;;;;19.37;16.37;;;;;;;-141.28;100.00;49505.94;5099548;28;20206;-79
2022/10/09 19:19:06;;;;;;;21.50;16.43;;;;;;;-141.28;100.00;49509.88;5108443;28;20293;-79
2022/10/09 19:21:35;;;;;;;19.43;16.00;;;;;;;-141.28;100.00;49529.50;5112861;28;20235;-79
2022/10/09 19:24:05;;;;;;;20.13;16.27;;;;;;;-141.28;100.00;49502.03;5093150;28;20212;-78
2022/10/09 19:26:34;;;;;;;20.30;16.40;;;;;;;-141.28;100.00;49541.25;5086872;28;20218;-79
2022/10/09 19:29:05;;;;;;;24.73;18.07;;;;;;;-141.28;100.00;49592.28;5093515;28;20631;-77
2022/10/09 19:31:36;;;;;;;23.67;16.43;;;;;;;-141.28;100.00;49560.88;5094397;28;20582;-76
2022/10/09 19:34:06;;;;;;;21.80;16.47;;;;;;;-141.28;100.00;49580.50;5088977;28;20712;-78
2022/10/09 19:36:35;;;;;;;22.73;16.97;;;;;;;-141.28;100.00;49657.03;5094248;28;20292;-78
2022/10/09 19:39:04;;;;;;;21.43;16.53;;;;;;;-141.28;100.00;49666.84;5081784;28;20232;-78
2022/10/09 19:41:31;;;;;;;18.83;16.80;;;;;;;-141.28;100.00;49660.97;5092469;28;20224;-79
2022/10/09 19:44:00;;;;;;;21.83;16.27;;;;;;;-141.28;100.00;49768.91;5077271;28;20205;-78
2022/10/09 19:46:29;;;;;;;23.40;16.80;;;;;;;-141.28;100.00;49757.13;5086342;28;20196;-78
2022/10/09 19:48:57;;;;;;;19.30;16.53;;;;;;;-141.28;100.00;49723.75;5093833;28;20211;-78
2022/10/09 19:51:25;;;;;;;24.30;17.00;;;;;;;-141.28;100.00;49914.13;5114596;28;20208;-78
2022/10/09 19:53:53;;;;;;;25.17;17.50;;;;;;;-141.28;100.00;49906.28;5097243;28;20216;-77
2022/10/09 19:56:25;;;;;;;26.47;17.93;;;;;;;-141.28;100.00;49906.28;5095587;28;20589;-82
2022/10/09 19:58:54;;;;;;;23.83;16.60;;;;;;;-141.28;100.00;49982.81;5093433;28;20702;-78
2022/10/09 20:01:26;;;;;;;23.93;16.77;;;;;;;-141.28;100.00;49988.69;5072502;28;20239;-81
2022/10/09 20:03:56;;;;;;;20.07;15.87;;;;;;;-141.28;100.00;50092.72;5088591;28;20208;-79
2022/10/09 20:06:32;;;;;;;22.20;16.27;;;;;;;-141.28;100.00;50114.31;5093445;28;20209;-80
2022/10/09 20:09:01;;;;;;;23.27;15.73;;;;;;;-141.28;100.00;50067.22;5093252;28;20203;-81
2022/10/09 20:11:28;;;;;;;23.13;15.93;;;;;;;-141.28;100.00;50126.09;5086500;28;20214;-80
2022/10/09 20:13:58;;;;;;;21.10;15.87;;;;;;;-141.28;100.00;50102.53;5096169;28;20203;-80
2022/10/09 20:16:28;;;;;;;19.03;15.30;;;;;;;-141.28;100.00;50157.50;5101756;28;20212;-78
2022/10/09 20:18:57;;;;;;;18.13;14.60;;;;;;;-141.28;100.00;50137.88;5094985;28;20220;-79
2022/10/09 20:21:25;;;;;;;22.57;15.13;;;;;;;-141.28;100.00;50188.91;5093617;28;20284;-79
2022/10/09 20:23:53;;;;;;;20.93;15.30;;;;;;;-141.28;100.00;50253.66;5092651;28;20204;-80
2022/10/09 20:26:21;;;;;;;18.77;15.37;;;;;;;-141.28;100.00;50232.06;5084779;28;20218;-78
2022/10/09 20:28:50;;;;;;;20.73;15.33;;;;;;;-141.28;100.00;50267.41;5093651;28;20203;-80
2022/10/09 20:31:19;;;;;;;18.80;14.60;;;;;;;-141.28;100.00;50275.25;5077909;28;20204;-80
2022/10/09 20:33:49;;;;;;;18.70;14.77;;;;;;;-141.28;100.00;50277.22;5081943;28;20303;-80
2022/10/09 20:36:23;;;;;;;17.17;14.57;;;;;;;-141.28;100.00;50255.63;5087880;28;20196;-81
2022/10/09 20:38:50;;;;;;;22.13;14.87;;;;;;;-141.28;100.00;50255.63;5092096;28;20661;-79
2022/10/09 20:41:18;;;;;;;18.77;15.60;;;;;;;-141.28;100.00;50243.84;5088071;28;20614;-81
2022/10/09 20:43:50;;;;;;;20.03;15.80;;;;;;;-141.28;100.00;50247.78;5088202;28;20200;-81
2022/10/09 20:46:17;;;;;;;18.13;15.67;;;;;;;-141.28;100.00;50232.06;5082764;28;20200;-80
2022/10/09 20:48:47;;;;;;;19.13;15.17;;;;;;;-141.28;100.00;50257.59;5084900;28;20692;-85
2022/10/09 20:51:15;;;;;;;20.97;15.20;;;;;;;-141.28;100.00;50232.06;5072460;28;20338;-80
2022/10/09 20:53:44;;;;;;;22.37;15.07;;;;;;;-141.28;100.00;50212.44;5072941;28;20733;-81
2022/10/09 20:56:15;;;;;;;16.23;13.03;;;;;;;-141.28;100.00;50230.13;5075615;28;20204;-83
2022/10/09 20:58:42;;;;;;;17.07;14.20;;;;;;;-141.28;100.00;50210.47;5081708;28;20315;-80
2022/10/09 21:01:12;;;;;;;18.30;13.70;;;;;;;-141.28;100.00;50188.91;5092298;28;20292;-79
2022/10/09 21:03:40;;;;;;;18.30;13.23;;;;;;;-141.28;100.00;50196.75;5082142;28;20597;-79
2022/10/09 21:06:08;;;;;;;20.23;14.20;;;;;;;-141.28;100.00;50204.59;5078808;28;20533;-79
2022/10/09 21:08:35;;;;;;;20.57;13.60;;;;;;;-141.28;100.00;50161.41;5079876;28;20291;-77
2022/10/09 21:11:09;;;;;;;16.33;13.67;;;;;;;-141.28;100.00;50177.13;5083657;28;20203;-78
2022/10/09 21:13:41;;;;;;;19.17;13.67;;;;;;;-141.28;100.00;50181.03;5091863;28;20215;-78
2022/10/09 21:16:11;;;;;;;16.63;13.47;;;;;;;-141.28;100.00;50165.34;5082044;28;20747;-79
2022/10/09 21:18:39;;;;;;;17.47;12.60;;;;;;;-141.28;100.00;50173.19;5085201;28;20207;-78
2022/10/09 21:21:08;;;;;;;20.40;13.77;;;;;;;-141.28;100.00;50126.09;5086258;28;20231;-77
2022/10/09 21:23:35;;;;;;;14.80;12.37;;;;;;;-141.28;100.00;50094.69;5090236;28;20203;-78
2022/10/09 21:26:03;;;;;;;23.97;13.53;;;;;;;-141.28;100.00;50086.84;5088906;28;20219;-78
2022/10/09 21:28:33;;;;;;;17.43;12.80;;;;;;;-141.28;100.00;50067.22;5078751;28;20723;-77
2022/10/09 21:31:00;;;;;;;19.33;13.33;;;;;;;-141.28;100.00;50045.63;5092019;28;20203;-77
2022/10/09 21:33:27;;;;;;;20.70;12.20;;;;;;;-141.28;100.00;50067.22;5103885;28;20206;-77
2022/10/09 21:35:55;;;;;;;15.57;12.63;;;;;;;-141.28;100.00;50031.88;5080472;28;20214;-76
2022/10/09 21:38:23;;;;;;;21.23;12.30;;;;;;;-141.28;100.00;50069.16;5094017;28;20199;-77
2022/10/09 21:40:50;;;;;;;16.10;12.30;;;;;;;-141.28;100.00;50055.44;5093081;28;20680;-76
2022/10/09 21:43:18;;;;;;;14.57;12.10;;;;;;;-141.28;100.00;50031.88;5091668;28;20272;-76
2022/10/09 21:45:49;;;;;;;23.40;13.00;;;;;;;-141.28;100.00;50016.19;5090869;28;20625;-78
2022/10/09 21:48:16;;;;;;;19.47;12.77;;;;;;;-141.28;100.00;50000.47;5090022;28;20203;-77
2022/10/09 21:50:44;;;;;;;13.73;10.97;;;;;;;-141.28;100.00;50029.91;5090018;28;20290;-76
2022/10/09 21:53:11;;;;;;;16.50;11.97;;;;;;;-141.28;100.00;49961.22;5091292;28;20615;-76
2022/10/09 21:55:38;;;;;;;16.10;11.80;;;;;;;-141.28;100.00;49933.75;5090916;28;20236;-77
2022/10/09 21:58:05;;;;;;;16.93;12.43;;;;;;;-141.28;100.00;49882.72;5093891;28;20280;-76
2022/10/09 22:00:57;;;;;;;15.23;12.17;;;;;;;-141.28;100.00;49953.38;5092528;28;20750;-77
2022/10/09 22:03:25;;;;;;;13.83;11.23;;;;;;;-141.28;100.00;49929.81;5079013;28;20199;-77
2022/10/09 22:05:51;;;;;;;18.23;11.87;;;;;;;-141.28;100.00;49874.88;5094327;28;20200;-75
2022/10/09 22:08:19;;;;;;;14.03;10.83;;;;;;;-141.28;100.00;49859.19;5099655;28;20217;-76
2022/10/09 22:10:46;;;;;;;15.53;11.70;;;;;;;-141.28;100.00;49827.78;5092422;28;20286;-75
2022/10/09 22:13:15;;;;;;;16.13;11.40;;;;;;;-141.28;100.00;49776.75;5095385;28;20203;-76
2022/10/09 22:15:44;;;;;;;15.83;11.53;;;;;;;-141.28;100.00;49768.91;5094765;28;20264;-75
2022/10/09 22:18:20;;;;;;;19.83;12.57;;;;;;;-141.28;100.00;49808.16;5095099;28;20686;-75
2022/10/09 22:20:50;;;;;;;14.27;12.13;;;;;;;-141.28;100.00;49710.03;5092666;28;20653;-76
2022/10/09 22:23:18;;;;;;;16.00;12.20;;;;;;;-141.28;100.00;49647.22;5094682;28;20231;-77
2022/10/09 22:25:45;;;;;;;22.07;11.70;;;;;;;-141.28;100.00;49619.75;5094771;28;20206;-77
2022/10/09 22:28:12;;;;;;;16.50;11.80;;;;;;;-141.28;100.00;49584.44;5093446;28;20211;-78
2022/10/09 22:30:39;;;;;;;19.30;12.43;;;;;;;-141.28;100.00;49551.06;5094607;28;20195;-77
2022/10/09 22:33:05;;;;;;;14.63;12.00;;;;;;;-141.28;100.00;49517.72;5094955;28;20203;-78
2022/10/09 22:35:34;;;;;;;18.60;12.37;;;;;;;-141.28;100.00;49486.31;5094557;28;20200;-79
2022/10/09 22:38:01;;;;;;;19.00;12.53;;;;;;;-141.28;100.00;49439.22;5095198;28;20636;-76
2022/10/09 22:40:28;;;;;;;14.30;12.40;;;;;;;-141.28;100.00;49427.44;5095991;28;20729;-77
2022/10/09 22:42:55;;;;;;;17.17;12.63;;;;;;;-141.28;100.00;49407.84;5094339;28;20223;-78
2022/10/09 22:45:25;;;;;;;16.27;12.67;;;;;;;-141.28;100.00;49399.97;5094507;28;20637;-76
2022/10/09 22:47:53;;;;;;;20.30;13.57;;;;;;;-141.28;100.00;49380.34;5081779;28;20203;-77
2022/10/09 22:50:21;;;;;;;16.60;12.87;;;;;;;-141.28;100.00;49329.34;5094918;28;20686;-77
2022/10/09 22:52:50;;;;;;;18.23;12.97;;;;;;;-141.28;100.00;49317.56;5094580;28;20206;-76
2022/10/09 22:55:17;;;;;;;21.97;13.77;;;;;;;-141.28;100.00;49294.03;5108034;28;20198;-76
2022/10/09 22:57:45;;;;;;;14.93;12.87;;;;;;;-141.28;100.00;49272.44;5105973;28;20783;-75
2022/10/09 23:00:13;;;;;;;17.13;13.57;;;;;;;-141.28;100.00;49278.31;5095386;28;20259;-76
2022/10/09 23:02:40;;;;;;;22.47;13.23;;;;;;;-141.28;100.00;49256.75;5105151;28;20254;-75
2022/10/09 23:05:08;;;;;;;18.67;12.43;;;;;;;-141.28;100.00;49223.38;5107571;28;20195;-76
2022/10/09 23:07:36;;;;;;;19.33;13.23;;;;;;;-141.28;100.00;49203.75;5104219;28;20202;-76
2022/10/09 23:10:05;;;;;;;15.47;12.37;;;;;;;-141.28;100.00;49219.47;5094089;28;20252;-75
2022/10/09 23:12:32;;;;;;;15.57;12.60;;;;;;;-141.28;100.00;49197.88;5093582;28;20724;-77
2022/10/09 23:14:59;;;;;;;15.80;12.47;;;;;;;-141.28;100.00;49156.66;5093876;28;20207;-76
2022/10/09 23:17:26;;;;;;;22.47;12.83;;;;;;;-141.28;100.00;49125.28;5091326;28;20964;-77
2022/10/09 23:19:53;;;;;;;16.90;11.87;;;;;;;-141.28;100.00;49105.66;5076081;28;20201;-77
2022/10/09 23:22:20;;;;;;;16.67;12.73;;;;;;;-141.28;100.00;49117.44;5078557;28;20220;-76
2022/10/09 23:24:48;;;;;;;17.07;12.67;;;;;;;-141.28;100.00;49066.41;5089586;28;20218;-77
2022/10/09 23:27:46;;;;;;;16.93;12.93;;;;;;;-141.28;100.00;49076.22;5094659;28;20222;-80
2022/10/09 23:30:29;;;;;;;20.10;13.17;;;;;;;-141.28;100.00;49082.13;5093788;28;20207;-79
2022/10/09 23:32:59;;;;;;;17.87;13.87;;;;;;;-141.28;100.00;48984.00;5080610;28;20207;-80
2022/10/09 23:35:26;;;;;;;26.23;12.83;;;;;;;-141.28;100.00;48923.19;5094882;28;20203;-75
2022/10/09 23:37:55;;;;;;;15.13;13.03;;;;;;;-141.28;100.00;48880.03;5093439;28;20199;-76
2022/10/09 23:40:22;;;;;;;16.60;12.80;;;;;;;-141.28;100.00;48844.72;5104028;28;20291;-77
2022/10/09 23:42:49;;;;;;;17.13;13.37;;;;;;;-141.28;100.00;48799.59;5106080;28;20612;-76
2022/10/09 23:45:18;;;;;;;15.53;12.97;;;;;;;-141.28;100.00;48760.34;5092828;28;20199;-77
2022/10/09 23:47:47;;;;;;;16.97;13.53;;;;;;;-141.28;100.00;48717.19;5093431;28;20715;-78
2022/10/09 23:50:14;;;;;;;24.07;14.43;;;;;;;-141.28;100.00;48670.09;5093334;28;20249;-77
2022/10/09 23:52:42;;;;;;;20.93;15.30;;;;;;;-141.28;100.00;48611.25;5094167;28;20689;-76
2022/10/09 23:55:09;;;;;;;21.37;14.30;;;;;;;-141.28;100.00;48509.25;5092777;28;20214;-77
2022/10/09 23:57:36;;;;;;;23.40;16.53;;;;;;;-141.28;100.00;48477.84;5079723;28;20211;-77
